createdAt,value
2023-05-14T00:04:00.695Z,94
2023-05-14T00:09:00.390Z,94
2023-05-14T00:13:59.894Z,94
2023-05-14T00:19:00.962Z,94
2023-05-14T00:23:57.313Z,94
2023-05-14T00:28:57.293Z,94
2023-05-14T00:33:56.597Z,94
2023-05-14T00:38:56.547Z,94
2023-05-14T00:44:12.243Z,94
2023-05-14T00:48:54.101Z,94
2023-05-14T00:53:54.043Z,94
2023-05-14T00:58:51.418Z,94
2023-05-14T01:03:51.612Z,94
2023-05-14T01:08:51.606Z,94
2023-05-14T01:13:53.009Z,94
2023-05-14T01:18:49.732Z,94
2023-05-14T01:23:49.358Z,94
2023-05-14T01:28:49.074Z,94
2023-05-14T01:33:48.398Z,94
2023-05-14T01:38:46.133Z,94
2023-05-14T01:43:45.758Z,94
2023-05-14T01:48:44.998Z,94
2023-05-14T01:53:44.765Z,94
2023-05-14T01:58:43.931Z,94
2023-05-14T02:05:14.954Z,95
2023-05-14T02:30:00.963Z,95
2023-05-14T02:35:00.555Z,95
2023-05-14T02:40:00.769Z,95
2023-05-14T02:49:58.081Z,96
2023-05-14T02:59:24.188Z,96
2023-05-14T03:04:23.575Z,96
2023-05-14T03:09:21.208Z,97
2023-05-14T03:14:21.046Z,97
2023-05-14T03:19:20.680Z,97
2023-05-14T03:24:19.916Z,97
2023-05-14T03:29:19.512Z,97
2023-05-14T03:34:19.235Z,97
2023-05-14T03:39:19.359Z,97
2023-05-14T03:44:18.672Z,97
2023-05-14T03:49:19.958Z,97
2023-05-14T03:54:16.238Z,97
2023-05-14T03:59:12.399Z,97
2023-05-14T04:04:12.780Z,97
2023-05-14T04:09:00.633Z,97
2023-05-14T04:14:00.227Z,97
2023-05-14T04:19:00.451Z,97
2023-05-14T04:23:59.949Z,97
2023-05-14T04:28:57.831Z,97
2023-05-14T04:33:57.775Z,97
2023-05-14T04:38:56.972Z,97
2023-05-14T04:43:56.715Z,98
2023-05-14T04:48:56.029Z,98
2023-05-14T04:53:55.885Z,98
2023-05-14T04:58:55.815Z,98
2023-05-14T05:03:55.651Z,98
2023-05-14T05:08:56.550Z,98
2023-05-14T05:13:52.804Z,98
2023-05-14T05:18:52.864Z,98
2023-05-14T05:23:52.151Z,98
2023-05-14T05:28:52.428Z,98
2023-05-14T05:33:49.873Z,98
2023-05-14T05:38:49.657Z,98
2023-05-14T05:43:49.999Z,98
2023-05-14T05:48:49.512Z,97
2023-05-14T05:53:48.893Z,97
2023-05-14T05:58:48.549Z,96
2023-05-14T06:03:48.882Z,94
2023-05-14T06:08:48.933Z,93
2023-05-14T06:13:46.461Z,92
2023-05-14T06:18:46.477Z,91
2023-05-14T06:23:45.636Z,89
2023-05-14T06:28:45.488Z,86
2023-05-14T06:33:44.829Z,85
2023-05-14T06:38:44.812Z,84
2023-05-14T06:43:44.896Z,83
2023-05-14T06:48:44.704Z,83
2023-05-14T06:53:45.848Z,81
2023-05-14T06:58:42.306Z,81
2023-05-14T07:05:13.948Z,82
2023-05-14T07:10:12.826Z,80
2023-05-14T07:15:13.108Z,76
2023-05-14T07:20:13.256Z,74
2023-05-14T07:25:15.254Z,74
2023-05-14T07:30:12.730Z,73
2023-05-14T07:35:12.772Z,71
2023-05-14T07:40:14.557Z,72
2023-05-14T07:45:12.533Z,72
2023-05-14T07:50:13.186Z,71
2023-05-14T07:55:13.536Z,68
2023-05-14T07:59:21.735Z,68
2023-05-14T08:04:22.083Z,67
2023-05-14T08:09:21.602Z,64
2023-05-14T08:14:22.772Z,63
2023-05-14T08:19:19.362Z,65
2023-05-14T08:24:19.068Z,66
2023-05-14T08:29:21.299Z,63
2023-05-14T08:34:18.463Z,64
2023-05-14T08:39:16.025Z,63
2023-05-14T08:44:16.056Z,61
2023-05-14T08:49:15.368Z,62
2023-05-14T08:54:15.119Z,61
2023-05-14T08:59:12.766Z,62
2023-05-14T09:04:12.882Z,61
2023-05-14T09:09:13.029Z,60
2023-05-14T09:14:13.414Z,58
2023-05-14T09:19:00.378Z,57
2023-05-14T09:23:59.927Z,57
2023-05-14T09:28:59.808Z,57
2023-05-14T09:33:57.369Z,57
2023-05-14T09:38:56.929Z,57
2023-05-14T09:43:56.625Z,60
2023-05-14T09:48:56.660Z,54
2023-05-14T09:53:55.381Z,59
2023-05-14T09:58:54.958Z,56
2023-05-14T10:03:55.066Z,56
2023-05-14T10:08:54.803Z,55
2023-05-14T10:13:56.194Z,56
2023-05-14T10:18:53.233Z,53
2023-05-14T10:23:52.492Z,55
2023-05-14T10:28:51.349Z,53
2023-05-14T10:33:51.021Z,58
2023-05-14T10:38:48.135Z,59
2023-05-14T10:43:47.673Z,62
2023-05-14T10:48:46.828Z,61
2023-05-14T10:53:46.404Z,62
2023-05-14T10:58:46.168Z,63
2023-05-14T11:05:16.926Z,63
2023-05-14T11:10:15.620Z,64
2023-05-14T11:15:16.275Z,58
2023-05-14T11:20:16.366Z,58
2023-05-14T11:25:17.980Z,59
2023-05-14T11:30:15.502Z,57
2023-05-14T11:35:15.326Z,56
2023-05-14T11:40:16.842Z,57
2023-05-14T11:45:13.447Z,58
2023-05-14T11:50:13.010Z,58
2023-05-14T11:55:12.896Z,57
2023-05-14T11:59:07.801Z,57
2023-05-14T12:04:07.700Z,60
2023-05-14T12:09:17.394Z,56
2023-05-14T12:14:18.674Z,58
2023-05-14T12:19:16.430Z,58
2023-05-14T12:24:15.764Z,57
2023-05-14T12:29:16.123Z,57
2023-05-14T12:34:13.387Z,58
2023-05-14T12:39:13.590Z,57
2023-05-14T12:44:14.810Z,58
2023-05-14T12:49:11.992Z,56
2023-05-14T12:54:11.385Z,56
2023-05-14T12:59:11.721Z,55
2023-05-14T13:03:59.406Z,55
2023-05-14T13:08:58.667Z,57
2023-05-14T13:13:58.027Z,57
2023-05-14T13:18:57.403Z,57
2023-05-14T13:23:56.553Z,58
2023-05-14T13:28:56.187Z,57
2023-05-14T13:33:56.485Z,59
2023-05-14T13:38:55.855Z,59
2023-05-14T13:43:56.759Z,60
2023-05-14T13:48:53.381Z,54
2023-05-14T13:58:52.764Z,53
2023-05-14T14:03:52.422Z,56
2023-05-14T14:08:51.408Z,54
2023-05-14T14:13:50.904Z,56
2023-05-14T14:18:50.847Z,58
2023-05-14T14:23:48.343Z,59
2023-05-14T14:28:47.889Z,60
2023-05-14T14:33:48.111Z,61
2023-05-14T14:38:47.502Z,61
2023-05-14T14:43:47.038Z,57
2023-05-14T14:48:47.070Z,56
2023-05-14T14:53:47.185Z,56
2023-05-14T14:58:46.654Z,61
2023-05-14T15:59:22.925Z,59
2023-05-14T16:04:23.944Z,58
2023-05-14T16:09:20.447Z,60
2023-05-14T16:14:20.102Z,61
2023-05-14T16:19:19.468Z,62
2023-05-14T16:24:19.167Z,62
2023-05-14T16:29:16.820Z,65
2023-05-14T16:34:16.579Z,63
2023-05-14T16:39:18.761Z,57
2023-05-14T16:44:16.354Z,58
2023-05-14T16:49:16.115Z,57
2023-05-14T16:54:15.467Z,59
2023-05-14T16:59:12.134Z,60
2023-05-14T17:04:11.742Z,60
2023-05-14T17:08:59.181Z,62
2023-05-14T17:13:58.815Z,61
2023-05-14T17:18:58.343Z,60
2023-05-14T17:23:57.939Z,58
2023-05-14T17:28:56.181Z,59
2023-05-14T17:33:55.875Z,58
2023-05-14T17:38:55.357Z,58
2023-05-14T17:43:54.969Z,59
2023-05-14T17:48:52.422Z,60
2023-05-14T17:53:52.279Z,60
2023-05-14T17:58:51.426Z,62
2023-05-14T18:05:12.682Z,63
2023-05-14T18:10:12.587Z,64
2023-05-14T18:15:12.338Z,63
2023-05-14T18:20:11.533Z,63
2023-05-14T18:25:12.591Z,62
2023-05-14T18:30:08.922Z,61
2023-05-14T18:35:09.007Z,64
2023-05-14T18:40:08.164Z,66
2023-05-14T18:45:08.116Z,67
2023-05-14T18:50:15.787Z,67
2023-05-14T18:59:19.311Z,69
2023-05-14T19:04:18.652Z,70
2023-05-14T19:09:17.875Z,71
2023-05-14T19:14:17.121Z,72
2023-05-14T19:19:16.430Z,72
2023-05-14T19:24:16.374Z,73
2023-05-14T19:29:15.657Z,74
2023-05-14T19:34:16.528Z,75
2023-05-14T19:39:12.954Z,76
2023-05-14T19:44:12.781Z,77
2023-05-14T19:49:12.146Z,77
2023-05-14T19:54:11.900Z,79
2023-05-14T19:59:14.631Z,81
2023-05-14T20:04:14.068Z,81
2023-05-14T20:09:14.231Z,82
2023-05-14T20:14:13.007Z,83
2023-05-14T20:19:13.260Z,85
2023-05-14T20:24:13.054Z,85
2023-05-14T20:29:14.451Z,86
2023-05-14T20:34:11.485Z,87
2023-05-14T20:39:11.178Z,87
2023-05-14T20:44:00.043Z,88
2023-05-14T20:48:59.750Z,88
2023-05-14T20:53:59.542Z,88
2023-05-14T20:58:59.474Z,89
2023-05-14T21:04:00.960Z,89
2023-05-14T21:08:56.640Z,90
2023-05-14T21:13:56.417Z,90
2023-05-14T21:18:55.914Z,91
2023-05-14T21:23:55.648Z,91
2023-05-14T21:28:53.126Z,92
2023-05-14T21:33:53.353Z,92
2023-05-14T21:38:52.448Z,92
2023-05-14T21:43:51.889Z,92
2023-05-14T21:48:51.802Z,91
2023-05-14T21:53:50.949Z,91
2023-05-14T21:58:51.240Z,91
2023-05-14T22:03:50.437Z,92
2023-05-14T22:08:51.522Z,92
2023-05-14T22:13:47.796Z,92
2023-05-14T22:18:47.676Z,92
2023-05-14T22:23:47.658Z,92
2023-05-14T22:28:46.915Z,92
2023-05-14T22:33:46.760Z,92
2023-05-14T22:38:46.784Z,92
2023-05-14T22:43:46.385Z,92
2023-05-14T22:48:47.486Z,92
2023-05-14T22:53:44.012Z,92
2023-05-14T22:58:43.841Z,93
2023-05-14T23:10:13.601Z,93
2023-05-14T23:15:13.429Z,93
2023-05-14T23:39:59.192Z,94
